Saint Davids, Pennsylvania
Current Conditions -  °F | °C
As of 3:35 PM on Monday 26 Jan 2015 (Local Time) from KLOM Reporting Station
Overcast Overcast  
Wind Chill: 27°   Ceiling: 1400
Heat Index: 27°   Visibility: 2.5mi
Dew Point: 21°   Wind: 3mph
Humidity: 80%   Direction: 30°NNE
Pressure: 29.77"   Gusts: 18mph
Location:  40.0627°N, 75.4015°W
Report Text: KLOM 262035Z AUTO 03003G16KT 2 1/2SM SCT005 OVC014 M03/M06 A2977 RMK AO1
Loading
Personal Weather Stations






























Interactive Weather Map New forecast layout! Learn more

10-Day Weather Forecast

Advertisements
Track Severe Weather on mobile